Time;durP1;ratioP1;P1;durP2;ratioP2;P2;SDS_P1;SDS_P2;PMS_P1;PMS_P2;Temp;Humidity;BMP_temperature;BMP_pressure;BME280_temperature;BME280_humidity;BME280_pressure;Samples;Min_cycle;Max_cycle;Signal;HPM_P1;HPM_P2
2023/10/08 00:02:25;;;;;;;3.70;1.70;;;21.40;96.50;;;;;;6062126;22;45331;-63
2023/10/08 00:05:07;;;;;;;3.00;1.70;;;21.40;96.60;;;;;;6074192;22;45228;-63
2023/10/08 00:07:55;;;;;;;3.60;2.00;;;21.40;96.50;;;;;;6065710;22;45670;-63
2023/10/08 00:10:45;;;;;;;4.35;1.77;;;21.40;96.40;;;;;;6074375;22;45393;-63
2023/10/08 00:13:15;;;;;;;3.53;1.88;;;21.30;96.40;;;;;;6066558;22;45212;-63
2023/10/08 00:15:53;;;;;;;3.78;2.17;;;21.40;96.40;;;;;;6084262;22;45496;-63
2023/10/08 00:18:22;;;;;;;2.17;1.52;;;21.30;96.40;;;;;;6075544;22;46531;-63
2023/10/08 00:23:31;;;;;;;3.10;1.85;;;21.30;96.30;;;;;;6067791;22;45205;-64
2023/10/08 00:26:27;;;;;;;3.30;1.77;;;21.40;96.30;;;;;;6094256;22;45374;-63
2023/10/08 00:29:21;;;;;;;2.55;1.75;;;21.40;96.30;;;;;;6076781;22;45554;-63
2023/10/08 00:31:56;;;;;;;4.20;2.00;;;21.40;96.20;;;;;;6071350;22;45244;-64
2023/10/08 00:34:54;;;;;;;4.90;1.80;;;21.40;96.20;;;;;;6078595;22;45196;-63
2023/10/08 00:37:26;;;;;;;2.28;1.55;;;21.40;96.20;;;;;;6059226;22;45304;-63
2023/10/08 00:40:29;;;;;;;3.90;2.15;;;21.40;96.20;;;;;;6089042;22;45359;-63
2023/10/08 00:43:10;;;;;;;4.28;1.85;;;21.40;96.10;;;;;;6106340;22;45492;-63
2023/10/08 00:46:01;;;;;;;4.13;1.88;;;21.40;96.10;;;;;;6088706;22;45285;-64
2023/10/08 00:48:54;;;;;;;3.33;2.13;;;21.40;96.10;;;;;;6086151;22;45441;-63
2023/10/08 00:51:42;;;;;;;3.75;1.50;;;21.30;96.10;;;;;;6075586;22;45986;-63
2023/10/08 00:57:47;;;;;;;2.95;1.83;;;21.30;96.00;;;;;;6037800;22;45031;-63
2023/10/08 01:00:33;;;;;;;3.60;1.77;;;21.30;96.00;;;;;;6050304;22;45215;-64
2023/10/08 01:03:02;;;;;;;3.50;1.92;;;21.40;96.00;;;;;;6059400;22;46016;-63
2023/10/08 01:05:46;;;;;;;3.00;1.90;;;21.40;96.00;;;;;;6105968;22;45294;-63
2023/10/08 01:08:57;;;;;;;2.40;1.45;;;21.40;95.90;;;;;;6070597;22;45168;-63
2023/10/08 01:11:46;;;;;;;4.32;1.70;;;21.30;95.80;;;;;;6073798;22;45233;-63
2023/10/08 01:14:42;;;;;;;4.25;2.08;;;21.30;95.80;;;;;;6079003;22;45477;-63
2023/10/08 01:17:12;;;;;;;3.65;2.10;;;21.30;95.80;;;;;;6089871;22;45054;-64
2023/10/08 01:19:56;;;;;;;3.42;1.80;;;21.30;95.80;;;;;;6074855;22;45129;-64
2023/10/08 01:23:06;;;;;;;3.65;1.92;;;21.40;95.80;;;;;;6092984;22;45196;-63
2023/10/08 01:28:17;;;;;;;4.07;1.98;;;21.30;95.80;;;;;;6065893;22;45176;-64
2023/10/08 01:31:06;;;;;;;2.80;1.55;;;21.30;95.80;;;;;;6059540;22;45496;-63
2023/10/08 01:33:47;;;;;;;3.53;1.80;;;21.30;95.70;;;;;;6061400;22;45405;-64
2023/10/08 01:36:14;;;;;;;4.97;2.05;;;21.30;95.70;;;;;;6064624;22;46714;-63
2023/10/08 01:38:42;;;;;;;2.53;1.70;;;21.30;95.70;;;;;;6069492;22;45283;-64
2023/10/08 01:41:30;;;;;;;3.92;2.10;;;21.30;95.70;;;;;;6081765;22;45186;-63
2023/10/08 01:44:28;;;;;;;2.78;1.67;;;21.30;95.60;;;;;;6063915;22;45439;-63
2023/10/08 01:47:30;;;;;;;2.67;1.60;;;21.30;95.50;;;;;;6044936;22;46340;-63
2023/10/08 01:50:00;;;;;;;3.70;1.75;;;21.30;95.50;;;;;;6083484;22;45348;-63
2023/10/08 01:52:46;;;;;;;4.38;2.10;;;21.30;95.50;;;;;;6042364;22;45279;-63
2023/10/08 01:55:30;;;;;;;4.35;1.90;;;21.30;95.50;;;;;;6074410;22;45389;-63
2023/10/08 01:58:20;;;;;;;3.83;1.98;;;21.30;95.50;;;;;;6084222;22;47661;-63
2023/10/08 02:01:39;;;;;;;4.55;2.13;;;21.30;95.40;;;;;;6062114;22;45094;-63
2023/10/08 02:04:25;;;;;;;3.70;1.80;;;21.30;95.40;;;;;;6065244;22;45318;-63
2023/10/08 02:06:51;;;;;;;2.95;2.00;;;21.30;95.30;;;;;;6048527;22;45322;-64
2023/10/08 02:09:37;;;;;;;3.25;1.92;;;21.30;95.70;;;;;;6063064;22;46160;-63
2023/10/08 02:12:18;;;;;;;3.08;1.67;;;21.30;95.20;;;;;;6061706;22;45392;-63
2023/10/08 02:18:23;;;;;;;4.18;1.92;;;21.30;95.20;;;;;;6027384;22;45405;-63
2023/10/08 02:21:21;;;;;;;4.40;1.77;;;21.30;95.20;;;;;;6065575;22;45872;-64
2023/10/08 02:24:23;;;;;;;3.08;1.70;;;21.30;95.10;;;;;;6062505;22;45476;-63
2023/10/08 02:30:27;;;;;;;3.90;2.08;;;21.30;95.10;;;;;;6046304;22;45290;-64
2023/10/08 02:33:17;;;;;;;4.60;2.25;;;21.30;95.10;;;;;;6094867;22;47020;-63
2023/10/08 02:35:45;;;;;;;3.65;2.00;;;21.30;95.00;;;;;;6039254;22;45368;-64
2023/10/08 02:38:28;;;;;;;2.97;1.70;;;21.30;95.00;;;;;;6093701;22;45299;-64
2023/10/08 02:41:08;;;;;;;3.70;2.00;;;21.30;95.00;;;;;;6072606;22;45607;-64
2023/10/08 02:43:36;;;;;;;4.30;2.03;;;21.30;95.00;;;;;;6076390;22;47401;-64
2023/10/08 02:46:14;;;;;;;3.78;1.80;;;21.30;94.90;;;;;;6064019;22;45245;-64
2023/10/08 02:49:03;;;;;;;3.20;1.80;;;21.30;94.90;;;;;;6066635;22;45187;-64
2023/10/08 02:51:30;;;;;;;2.45;1.58;;;21.30;94.80;;;;;;6069341;22;45376;-64
2023/10/08 02:54:16;;;;;;;4.10;1.95;;;21.30;94.90;;;;;;6098907;22;46473;-64
2023/10/08 02:57:21;;;;;;;3.40;2.10;;;21.30;94.80;;;;;;6090251;22;45104;-64
2023/10/08 03:00:14;;;;;;;2.78;1.70;;;21.20;94.60;;;;;;6057631;22;45178;-64
2023/10/08 03:02:42;;;;;;;2.88;1.90;;;21.20;94.50;;;;;;6073394;22;45296;-64
2023/10/08 03:05:35;;;;;;;3.55;2.03;;;21.30;94.60;;;;;;6108647;22;45946;-64
2023/10/08 03:08:03;;;;;;;4.63;1.75;;;21.20;94.50;;;;;;6088259;22;45246;-64
2023/10/08 03:11:03;;;;;;;2.05;1.50;;;21.30;94.50;;;;;;6094407;22;45340;-64
2023/10/08 03:14:15;;;;;;;3.67;2.05;;;21.30;94.50;;;;;;6058159;22;45290;-64
2023/10/08 03:16:42;;;;;;;3.65;1.85;;;21.30;94.60;;;;;;6071892;22;47319;-64
2023/10/08 03:19:12;;;;;;;3.88;1.77;;;21.30;94.50;;;;;;6061934;22;45244;-64
2023/10/08 03:21:55;;;;;;;2.97;1.67;;;21.30;94.60;;;;;;6102398;22;45164;-64
2023/10/08 03:31:02;;;;;;;3.47;1.70;;;21.30;94.60;;;;;;6041684;22;45193;-64
2023/10/08 03:33:37;;;;;;;3.75;1.90;;;21.30;94.60;;;;;;6081078;22;45271;-64
2023/10/08 03:36:34;;;;;;;5.00;1.80;;;21.30;94.40;;;;;;6083672;22;45465;-64
2023/10/08 03:39:50;;;;;;;3.45;1.92;;;21.30;94.30;;;;;;6076224;22;47049;-64
2023/10/08 03:42:19;;;;;;;4.25;1.88;;;21.20;94.20;;;;;;6069953;22;45434;-64
2023/10/08 03:45:12;;;;;;;4.38;2.08;;;21.20;94.20;;;;;;6077135;22;45532;-64
2023/10/08 03:56:51;;;;;;;3.78;1.95;;;21.30;94.20;;;;;;6063972;22;45124;-64
2023/10/08 03:59:40;;;;;;;3.65;2.00;;;21.20;94.10;;;;;;6054049;22;45268;-63
2023/10/08 04:02:40;;;;;;;3.30;1.92;;;21.20;94.00;;;;;;6061062;22;47201;-64
2023/10/08 04:05:40;;;;;;;5.25;2.10;;;21.20;94.00;;;;;;6063651;22;45225;-63
2023/10/08 04:11:35;;;;;;;3.30;1.73;;;21.20;94.00;;;;;;6058393;22;45394;-64
2023/10/08 04:14:30;;;;;;;3.15;1.70;;;21.20;93.90;;;;;;6064749;22;47344;-64
2023/10/08 04:16:59;;;;;;;3.53;1.90;;;21.20;93.90;;;;;;6079435;22;45214;-64
2023/10/08 04:20:01;;;;;;;3.42;2.03;;;21.20;93.90;;;;;;6085517;22;45193;-64
2023/10/08 04:22:44;;;;;;;2.80;1.80;;;21.20;93.80;;;;;;6088788;22;45345;-64
2023/10/08 04:25:13;;;;;;;3.67;1.83;;;21.20;93.80;;;;;;6070779;22;47444;-64
2023/10/08 04:28:17;;;;;;;4.15;1.80;;;21.20;93.70;;;;;;6080343;22;45414;-64
2023/10/08 04:47:04;;;;;;;4.78;1.83;;;21.30;93.70;;;;;;6375216;22;45198;-65
2023/10/08 04:50:15;;;;;;;3.20;1.80;;;21.20;93.50;;;;;;5987961;22;1506586;-64
2023/10/08 04:53:07;;;;;;;4.35;2.00;;;21.20;93.50;;;;;;6057768;22;45210;-64
2023/10/08 04:56:02;;;;;;;2.92;1.98;;;21.20;93.50;;;;;;6047299;22;45250;-64
2023/10/08 04:58:57;;;;;;;2.90;1.73;;;21.20;93.40;;;;;;6112434;22;45272;-64
2023/10/08 05:11:15;;;;;;;3.45;2.03;;;21.20;93.30;;;;;;6085074;22;45225;-64
2023/10/08 05:13:55;;;;;;;4.25;2.00;;;21.20;93.30;;;;;;6073269;22;45270;-64
2023/10/08 05:25:05;;;;;;;2.88;1.85;;;21.20;93.30;;;;;;6094778;22;45389;-64
2023/10/08 05:27:58;;;;;;;4.28;1.85;;;21.20;93.30;;;;;;6054594;22;45273;-64
2023/10/08 05:33:49;;;;;;;4.38;2.15;;;21.20;93.20;;;;;;6049794;22;45284;-64
2023/10/08 05:36:50;;;;;;;5.32;1.98;;;21.20;93.20;;;;;;6089061;22;45404;-64
2023/10/08 05:43:01;;;;;;;3.75;1.90;;;21.20;93.10;;;;;;6090017;22;45256;-64
2023/10/08 05:45:37;;;;;;;3.22;1.80;;;21.20;93.00;;;;;;6028464;22;45191;-64
2023/10/08 05:48:31;;;;;;;5.75;2.45;;;21.20;93.10;;;;;;6097011;22;45086;-64
2023/10/08 05:51:44;;;;;;;4.03;2.20;;;21.20;93.00;;;;;;6075820;22;45169;-64
2023/10/08 05:54:36;;;;;;;3.90;1.90;;;21.20;92.90;;;;;;6077331;22;46147;-64
2023/10/08 05:57:35;;;;;;;4.10;1.80;;;21.20;92.90;;;;;;6089461;22;45218;-64
2023/10/08 06:06:21;;;;;;;3.45;1.88;;;21.20;92.80;;;;;;6045062;22;45334;-64
2023/10/08 06:11:41;;;;;;;3.60;1.90;;;21.20;92.70;;;;;;6072105;22;45373;-64
2023/10/08 06:14:16;;;;;;;3.42;2.17;;;21.20;92.70;;;;;;6048061;22;45325;-65
2023/10/08 06:17:13;;;;;;;4.00;1.92;;;21.20;92.70;;;;;;6082706;22;45190;-64
2023/10/08 06:19:49;;;;;;;3.75;2.10;;;21.20;92.60;;;;;;6069497;22;45201;-64
2023/10/08 06:22:18;;;;;;;5.15;2.10;;;21.20;92.70;;;;;;6057872;22;45050;-64
2023/10/08 06:25:23;;;;;;;5.85;2.03;;;21.20;92.70;;;;;;6097958;22;45124;-64
2023/10/08 06:28:10;;;;;;;4.10;2.13;;;21.20;92.50;;;;;;6062025;22;45154;-64
2023/10/08 06:30:55;;;;;;;4.68;2.08;;;21.20;92.50;;;;;;6080439;22;45258;-64
2023/10/08 06:33:33;;;;;;;6.75;2.35;;;21.20;92.60;;;;;;6065682;22;45259;-64
2023/10/08 06:36:02;;;;;;;3.63;2.17;;;21.20;92.50;;;;;;6068096;22;44835;-64
2023/10/08 06:38:31;;;;;;;2.95;1.80;;;21.20;92.50;;;;;;6045022;22;47336;-64
2023/10/08 06:41:08;;;;;;;2.90;1.80;;;21.20;92.60;;;;;;6075244;22;44838;-65
2023/10/08 06:43:36;;;;;;;3.63;2.28;;;21.20;92.60;;;;;;6051864;22;45237;-65
2023/10/08 06:46:18;;;;;;;3.88;2.20;;;21.20;92.60;;;;;;6102422;22;44860;-66
2023/10/08 06:48:54;;;;;;;2.78;2.10;;;21.20;92.50;;;;;;6066743;22;45224;-65
2023/10/08 06:51:33;;;;;;;3.60;1.90;;;21.20;92.50;;;;;;6115234;22;45097;-65
2023/10/08 06:54:17;;;;;;;3.88;2.00;;;21.20;92.50;;;;;;6066136;22;45112;-65
2023/10/08 06:56:51;;;;;;;3.30;1.63;;;21.20;92.50;;;;;;6082437;22;45111;-66
2023/10/08 06:59:19;;;;;;;4.90;2.45;;;21.20;92.50;;;;;;6065604;22;45356;-66
2023/10/08 07:02:10;;;;;;;3.22;1.92;;;21.20;92.50;;;;;;6086463;22;44982;-65
2023/10/08 07:04:58;;;;;;;3.53;2.10;;;21.20;92.50;;;;;;6088997;22;45287;-64
2023/10/08 07:07:40;;;;;;;3.15;1.60;;;21.20;92.50;;;;;;6068291;22;45058;-66
2023/10/08 07:10:10;;;;;;;4.32;1.58;;;21.20;92.50;;;;;;6123366;22;45677;-66
2023/10/08 07:12:54;;;;;;;3.42;2.15;;;21.20;92.40;;;;;;6059516;22;45158;-66
2023/10/08 07:15:23;;;;;;;3.35;1.67;;;21.20;92.40;;;;;;6073878;22;45236;-66
2023/10/08 07:18:24;;;;;;;2.78;1.95;;;21.20;92.40;;;;;;6093732;22;45238;-66
2023/10/08 07:21:13;;;;;;;4.88;2.13;;;21.20;92.30;;;;;;6101616;22;47076;-66
2023/10/08 07:23:55;;;;;;;3.45;1.83;;;21.30;92.40;;;;;;6056163;22;45139;-66
2023/10/08 07:26:47;;;;;;;5.38;2.38;;;21.30;92.40;;;;;;6062934;22;45186;-65
2023/10/08 07:29:26;;;;;;;4.18;2.20;;;21.30;92.30;;;;;;6040714;22;44757;-66
2023/10/08 07:31:53;;;;;;;4.13;2.33;;;21.30;92.30;;;;;;6076332;22;46241;-67
2023/10/08 07:34:31;;;;;;;4.07;1.90;;;21.30;92.30;;;;;;6074593;22;45136;-67
2023/10/08 07:37:00;;;;;;;4.35;1.98;;;21.30;92.30;;;;;;6111356;22;45219;-67
2023/10/08 07:42:10;;;;;;;5.15;2.08;;;21.30;92.40;;;;;;6060669;22;45265;-67
2023/10/08 07:45:03;;;;;;;4.30;2.20;;;21.30;92.40;;;;;;6082271;22;45249;-67
2023/10/08 07:47:34;;;;;;;4.38;2.10;;;21.30;92.80;;;;;;6112127;22;45330;-68
2023/10/08 07:50:16;;;;;;;3.47;2.00;;;21.30;92.40;;;;;;6100489;22;44791;-66
2023/10/08 07:52:44;;;;;;;4.03;2.03;;;21.30;92.40;;;;;;6064371;22;46331;-66
2023/10/08 07:55:23;;;;;;;3.25;1.77;;;21.30;92.40;;;;;;6082168;22;45112;-64
2023/10/08 07:57:50;;;;;;;4.03;2.03;;;21.30;92.40;;;;;;6050180;22;45199;-65
2023/10/08 08:00:22;;;;;;;3.65;2.00;;;21.30;92.90;;;;;;6103149;22;45253;-66
2023/10/08 08:02:59;;;;;;;3.45;1.67;;;21.30;93.00;;;;;;6091808;22;46882;-66
2023/10/08 08:05:38;;;;;;;3.40;2.03;;;21.30;93.10;;;;;;6095031;22;45178;-65
2023/10/08 08:08:22;;;;;;;4.22;2.15;;;21.30;93.20;;;;;;6142703;22;45207;-66
2023/10/08 08:10:57;;;;;;;3.35;1.83;;;21.30;93.10;;;;;;6129609;22;45278;-66
2023/10/08 08:13:42;;;;;;;3.72;2.10;;;21.30;93.20;;;;;;6141694;22;46305;-66
2023/10/08 08:16:31;;;;;;;6.20;2.05;;;21.30;93.10;;;;;;6100444;22;45436;-67
2023/10/08 08:19:24;;;;;;;2.85;1.80;;;21.30;93.10;;;;;;6088249;22;45405;-64
2023/10/08 08:22:02;;;;;;;4.60;1.95;;;21.30;93.00;;;;;;6055389;22;44972;-64
2023/10/08 08:24:34;;;;;;;3.30;2.13;;;21.40;93.00;;;;;;6045097;22;46500;-65
2023/10/08 08:27:11;;;;;;;5.03;2.25;;;21.30;92.90;;;;;;6067456;22;44807;-65
2023/10/08 08:30:15;;;;;;;4.47;2.17;;;21.40;92.80;;;;;;6093806;22;44924;-66
2023/10/08 08:33:10;;;;;;;3.63;1.88;;;21.30;92.80;;;;;;6116560;22;45326;-66
2023/10/08 08:35:59;;;;;;;3.50;2.03;;;21.40;93.00;;;;;;6103523;22;46472;-66
2023/10/08 08:39:32;;;;;;;4.15;1.98;;;21.30;93.00;;;;;;6111680;22;45218;-66
2023/10/08 08:42:05;;;;;;;3.90;2.10;;;21.30;93.00;;;;;;6124949;22;44818;-66
2023/10/08 08:44:56;;;;;;;4.90;2.40;;;21.30;93.00;;;;;;6126460;22;45283;-66
2023/10/08 08:51:20;;;;;;;5.35;1.98;;;21.30;93.10;;;;;;6102946;22;45071;-66
2023/10/08 08:54:11;;;;;;;3.30;1.80;;;21.30;93.10;;;;;;6134919;22;45182;-66
2023/10/08 08:56:57;;;;;;;3.53;1.70;;;21.30;93.10;;;;;;6124769;22;45125;-66
2023/10/08 08:59:57;;;;;;;4.60;2.03;;;21.30;93.00;;;;;;6107838;22;46954;-66
2023/10/08 09:02:25;;;;;;;3.83;2.33;;;21.30;92.90;;;;;;6116024;22;45035;-66
2023/10/08 09:04:59;;;;;;;4.35;2.00;;;21.30;92.80;;;;;;6101846;22;45172;-66
2023/10/08 09:07:58;;;;;;;4.65;2.50;;;21.30;92.70;;;;;;6137304;22;45007;-66
2023/10/08 09:10:37;;;;;;;4.78;2.22;;;21.20;92.40;;;;;;6142863;22;46248;-66
2023/10/08 09:13:22;;;;;;;4.25;2.03;;;21.30;92.40;;;;;;6120461;22;45156;-66
2023/10/08 09:16:22;;;;;;;4.20;2.40;;;21.20;92.00;;;;;;6122116;22;45075;-66
2023/10/08 09:18:52;;;;;;;4.00;2.20;;;21.30;91.80;;;;;;6104883;22;45112;-66
2023/10/08 09:21:22;;;;;;;4.60;2.42;;;21.30;91.70;;;;;;6100707;22;46393;-65
2023/10/08 09:23:51;;;;;;;5.07;2.22;;;21.20;91.60;;;;;;6130243;22;45187;-64
2023/10/08 09:26:20;;;;;;;4.93;2.60;;;21.20;91.80;;;;;;6101179;22;45251;-65
2023/10/08 09:29:12;;;;;;;4.78;2.40;;;21.30;92.00;;;;;;6079970;22;45367;-65
2023/10/08 09:34:58;;;;;;;6.68;2.67;;;21.30;91.90;;;;;;6078919;22;45037;-65
2023/10/08 09:40:33;;;;;;;5.70;2.55;;;21.30;92.10;;;;;;6103036;22;45123;-65
2023/10/08 09:43:23;;;;;;;5.53;2.22;;;21.30;92.10;;;;;;6088891;22;46528;-66
2023/10/08 09:46:16;;;;;;;5.20;2.42;;;21.30;92.20;;;;;;6119140;22;44851;-66
2023/10/08 09:49:21;;;;;;;4.95;2.30;;;21.30;92.30;;;;;;6143093;22;45034;-66
2023/10/08 09:52:13;;;;;;;5.45;2.35;;;21.30;92.30;;;;;;6117733;22;44637;-66
2023/10/08 09:55:01;;;;;;;4.18;2.50;;;21.30;92.30;;;;;;6110286;22;46424;-67
2023/10/08 09:57:28;;;;;;;7.00;2.63;;;21.30;92.40;;;;;;6113026;22;45230;-66
2023/10/08 09:59:57;;;;;;;5.63;2.67;;;21.30;92.40;;;;;;6111703;22;45313;-66
2023/10/08 10:02:55;;;;;;;7.05;2.60;;;21.30;92.40;;;;;;6108538;22;45031;-66
2023/10/08 10:05:24;;;;;;;5.97;2.72;;;21.30;92.50;;;;;;6107983;22;46539;-66
2023/10/08 10:13:13;;;;;;;5.75;2.40;;;21.30;92.50;;;;;;6112007;22;44884;-66
2023/10/08 10:16:14;;;;;;;4.90;2.20;;;21.30;92.60;;;;;;6134923;22;46332;-66
2023/10/08 10:19:10;;;;;;;6.25;2.40;;;21.30;92.60;;;;;;6174641;22;45122;-65
2023/10/08 10:25:43;;;;;;;5.78;2.53;;;21.30;92.60;;;;;;6102251;22;45100;-66
2023/10/08 10:28:23;;;;;;;6.88;2.70;;;21.30;92.70;;;;;;6139089;22;46288;-66
2023/10/08 10:33:54;;;;;;;7.88;3.00;;;21.30;92.70;;;;;;6143148;22;45216;-66
2023/10/08 10:36:34;;;;;;;8.25;2.60;;;21.30;92.80;;;;;;6133075;22;45282;-66
2023/10/08 10:39:30;;;;;;;6.57;2.80;;;21.30;92.80;;;;;;6173412;22;47820;-66
2023/10/08 10:42:28;;;;;;;6.10;2.85;;;21.30;92.80;;;;;;6155309;22;45120;-66
2023/10/08 10:45:44;;;;;;;6.80;2.88;;;21.30;92.80;;;;;;6142408;22;45253;-66
2023/10/08 10:48:25;;;;;;;5.93;2.72;;;21.40;92.90;;;;;;6146875;22;45399;-66
2023/10/08 10:51:11;;;;;;;6.88;2.75;;;21.40;92.90;;;;;;6084732;22;46508;-65
2023/10/08 10:54:00;;;;;;;6.18;2.83;;;21.30;92.90;;;;;;6092703;22;45020;-65
2023/10/08 10:57:03;;;;;;;5.28;2.67;;;21.40;92.90;;;;;;6085600;22;45303;-66
2023/10/08 10:59:36;;;;;;;4.72;2.78;;;21.30;92.90;;;;;;6049438;22;45311;-65
2023/10/08 11:05:31;;;;;;;6.55;2.50;;;21.40;93.00;;;;;;6087619;22;45116;-66
2023/10/08 11:08:04;;;;;;;5.88;2.53;;;21.40;93.00;;;;;;6108041;22;45187;-66
2023/10/08 11:10:50;;;;;;;4.80;2.58;;;21.40;93.10;;;;;;6110799;22;45681;-66
2023/10/08 11:13:19;;;;;;;5.25;2.78;;;21.30;93.00;;;;;;6137087;22;47249;-66
2023/10/08 11:16:13;;;;;;;6.72;2.42;;;21.30;93.10;;;;;;6135188;22;44629;-66
2023/10/08 11:18:57;;;;;;;4.65;2.42;;;21.40;93.20;;;;;;6141176;22;44888;-66
2023/10/08 11:21:33;;;;;;;5.68;2.53;;;21.40;93.20;;;;;;6134435;22;44907;-66
2023/10/08 11:24:08;;;;;;;5.35;2.58;;;21.40;93.20;;;;;;6105124;22;47383;-66
2023/10/08 11:27:02;;;;;;;5.65;2.67;;;21.40;93.20;;;;;;6125008;22;45183;-66
2023/10/08 11:29:43;;;;;;;5.55;2.88;;;21.40;93.30;;;;;;6092745;22;45038;-66
2023/10/08 11:32:32;;;;;;;6.45;2.83;;;21.40;93.30;;;;;;6087829;22;45217;-66
2023/10/08 11:35:16;;;;;;;6.22;3.00;;;21.40;93.30;;;;;;6068920;22;46875;-66
2023/10/08 11:38:04;;;;;;;5.78;2.90;;;21.40;93.40;;;;;;6112608;22;45183;-66
2023/10/08 11:40:56;;;;;;;6.45;3.05;;;21.40;93.40;;;;;;6086154;22;44795;-66
2023/10/08 11:43:35;;;;;;;6.35;2.70;;;21.40;93.40;;;;;;6086343;22;45193;-66
2023/10/08 11:46:19;;;;;;;6.93;3.17;;;21.40;93.40;;;;;;6095059;22;47953;-66
2023/10/08 11:49:25;;;;;;;6.20;2.58;;;21.40;93.90;;;;;;6084368;22;44937;-66
2023/10/08 11:52:00;;;;;;;6.32;3.20;;;21.40;93.50;;;;;;6084878;22;45022;-66
2023/10/08 11:54:53;;;;;;;6.78;2.70;;;21.40;93.50;;;;;;6099342;22;44853;-66
2023/10/08 11:57:21;;;;;;;6.28;2.72;;;21.40;93.60;;;;;;6111682;22;46149;-66
2023/10/08 11:59:48;;;;;;;6.55;3.22;;;21.40;93.60;;;;;;6092656;22;45154;-66
2023/10/08 12:02:41;;;;;;;8.85;3.28;;;21.40;93.60;;;;;;6080726;22;45460;-66
2023/10/08 12:05:35;;;;;;;5.82;3.22;;;21.40;93.70;;;;;;6092198;22;45303;-66
2023/10/08 12:08:39;;;;;;;7.97;3.30;;;21.40;93.70;;;;;;6102858;22;46276;-66
2023/10/08 12:14:43;;;;;;;10.63;3.72;;;21.40;93.70;;;;;;6060772;22;44871;-66
2023/10/08 12:17:40;;;;;;;7.47;3.55;;;21.40;93.80;;;;;;6099856;22;44996;-66
2023/10/08 12:23:56;;;;;;;6.30;3.30;;;21.40;93.90;;;;;;6035092;22;45052;-67
2023/10/08 12:26:23;;;;;;;5.68;3.00;;;21.40;93.90;;;;;;6085401;22;45147;-66
2023/10/08 12:28:53;;;;;;;8.15;3.83;;;21.40;93.90;;;;;;6093197;22;45114;-67
2023/10/08 12:31:48;;;;;;;7.47;3.50;;;21.40;94.00;;;;;;6078056;22;45436;-66
2023/10/08 12:34:42;;;;;;;8.57;3.92;;;21.40;94.00;;;;;;6134174;22;45231;-66
2023/10/08 12:37:12;;;;;;;9.40;3.80;;;21.40;94.00;;;;;;6109236;22;45157;-66
2023/10/08 12:40:11;;;;;;;8.52;3.90;;;21.40;94.00;;;;;;6126925;22;45266;-66
2023/10/08 12:43:04;;;;;;;7.57;3.75;;;21.40;94.10;;;;;;6061894;22;45997;-66
2023/10/08 12:45:39;;;;;;;8.85;3.72;;;21.40;94.10;;;;;;6073681;22;44779;-66
2023/10/08 12:51:55;;;;;;;6.80;3.53;;;21.40;94.20;;;;;;6052849;22;45209;-66
2023/10/08 12:54:23;;;;;;;8.50;3.60;;;21.40;94.20;;;;;;6077526;22;47197;-66
2023/10/08 12:56:54;;;;;;;11.52;3.63;;;21.40;94.60;;;;;;6084455;22;45113;-67
2023/10/08 12:59:38;;;;;;;7.30;3.67;;;21.40;94.20;;;;;;6077170;22;45089;-66
2023/10/08 13:02:28;;;;;;;7.32;3.60;;;21.40;94.30;;;;;;6065693;22;45252;-66
2023/10/08 13:04:57;;;;;;;7.15;3.30;;;21.40;94.30;;;;;;6071562;22;46526;-66
2023/10/08 13:07:47;;;;;;;9.07;3.22;;;21.40;94.30;;;;;;6046743;22;45086;-66
2023/10/08 13:10:15;;;;;;;7.68;3.45;;;21.40;94.40;;;;;;6070244;22;45106;-66
2023/10/08 13:12:58;;;;;;;9.20;4.20;;;21.50;94.40;;;;;;6054084;22;45054;-66
2023/10/08 13:15:26;;;;;;;6.45;3.55;;;21.50;94.40;;;;;;6058989;22;45642;-67
2023/10/08 13:17:52;;;;;;;6.50;4.00;;;21.50;94.40;;;;;;6106081;22;45192;-66
2023/10/08 13:20:21;;;;;;;10.00;3.22;;;21.40;94.50;;;;;;6089744;22;45129;-67
2023/10/08 13:23:00;;;;;;;9.32;3.22;;;21.50;94.60;;;;;;6047693;22;45277;-66
2023/10/08 13:25:54;;;;;;;7.55;3.45;;;21.50;94.60;;;;;;6058758;22;45156;-66
2023/10/08 13:28:23;;;;;;;8.10;3.78;;;21.40;94.60;;;;;;6056305;22;45209;-67
2023/10/08 13:31:24;;;;;;;7.18;3.20;;;21.40;94.60;;;;;;6070892;22;45451;-66
2023/10/08 13:34:03;;;;;;;6.05;3.20;;;21.50;94.60;;;;;;6059712;22;44847;-67
2023/10/08 13:36:31;;;;;;;4.80;2.90;;;21.40;94.60;;;;;;6056875;22;48455;-66
2023/10/08 13:39:18;;;;;;;6.10;3.35;;;21.50;94.60;;;;;;6051609;22;45016;-66
2023/10/08 13:42:52;;;;;;;8.07;3.60;;;21.50;94.60;;;;;;6100029;22;45147;-66
2023/10/08 13:45:50;;;;;;;9.02;3.85;;;21.40;94.60;;;;;;6062140;22;45096;-66
2023/10/08 13:48:25;;;;;;;6.28;3.47;;;21.40;94.60;;;;;;6101840;22;47248;-67
2023/10/08 13:50:55;;;;;;;7.25;3.20;;;21.40;94.60;;;;;;6067896;22;45204;-67
2023/10/08 13:57:32;;;;;;;7.57;3.50;;;21.40;94.60;;;;;;6022322;22;45569;-67
2023/10/08 14:00:26;;;;;;;6.10;3.50;;;21.50;94.90;;;;;;6080784;22;47321;-66
2023/10/08 14:03:33;;;;;;;7.07;3.53;;;21.50;94.80;;;;;;6026350;22;45069;-67
2023/10/08 14:06:04;;;;;;;7.68;3.58;;;21.50;94.90;;;;;;6067373;22;45172;-67
2023/10/08 14:08:32;;;;;;;6.40;3.30;;;21.40;94.90;;;;;;6076316;22;45311;-67
2023/10/08 14:11:02;;;;;;;8.38;3.75;;;21.50;95.00;;;;;;6076586;22;46334;-67
2023/10/08 14:13:42;;;;;;;6.82;3.47;;;21.40;94.90;;;;;;6049369;22;45328;-67
2023/10/08 14:16:11;;;;;;;5.63;3.35;;;21.50;95.40;;;;;;6043355;22;45233;-66
2023/10/08 14:19:12;;;;;;;6.55;3.70;;;21.50;95.00;;;;;;6140456;22;45119;-66
2023/10/08 14:22:24;;;;;;;6.95;3.25;;;21.50;95.10;;;;;;6094242;22;47248;-67
2023/10/08 14:25:24;;;;;;;9.15;3.45;;;21.50;95.20;;;;;;6091592;22;45221;-66
2023/10/08 14:28:22;;;;;;;6.72;3.60;;;21.50;95.30;;;;;;6054978;22;44934;-66
2023/10/08 14:31:05;;;;;;;5.22;2.90;;;21.50;95.40;;;;;;6073756;22;45078;-66
2023/10/08 14:43:01;;;;;;;8.13;3.88;;;21.50;95.60;;;;;;6085821;22;45194;-67
2023/10/08 14:45:54;;;;;;;5.97;3.45;;;21.50;95.70;;;;;;6071077;22;47408;-67
2023/10/08 14:48:36;;;;;;;5.05;3.28;;;21.50;95.80;;;;;;6060032;22;45445;-66
2023/10/08 14:51:03;;;;;;;6.97;3.65;;;21.50;95.80;;;;;;6074891;22;44793;-66
2023/10/08 14:53:47;;;;;;;7.22;3.65;;;21.50;95.80;;;;;;6051171;22;44874;-66
2023/10/08 14:56:25;;;;;;;5.35;3.22;;;21.50;95.90;;;;;;6072592;22;47597;-67
2023/10/08 14:58:52;;;;;;;5.70;3.50;;;21.50;95.90;;;;;;6083498;22;45203;-67
2023/10/08 15:01:58;;;;;;;7.45;3.97;;;21.50;95.90;;;;;;6083945;22;45203;-66
2023/10/08 15:07:08;;;;;;;8.98;4.10;;;21.50;96.10;;;;;;6074442;22;45115;-66
2023/10/08 15:09:49;;;;;;;7.32;3.90;;;21.50;96.10;;;;;;6040425;22;45267;-66
2023/10/08 15:12:21;;;;;;;7.65;3.90;;;21.50;96.10;;;;;;6052911;22;45064;-66
2023/10/08 15:15:15;;;;;;;7.60;4.20;;;21.50;96.20;;;;;;6106904;22;45294;-66
2023/10/08 15:17:43;;;;;;;8.57;4.47;;;21.50;96.20;;;;;;6055456;22;46364;-67
2023/10/08 15:24:09;;;;;;;7.88;4.10;;;21.50;96.30;;;;;;6013642;22;45337;-66
2023/10/08 15:27:11;;;;;;;9.48;4.20;;;21.50;96.30;;;;;;6053574;22;45014;-66
2023/10/08 15:30:04;;;;;;;7.82;3.70;;;21.40;96.30;;;;;;6078389;22;46550;-66
2023/10/08 15:32:31;;;;;;;9.73;4.07;;;21.40;96.30;;;;;;6074164;22;45371;-67
2023/10/08 15:35:28;;;;;;;9.63;3.83;;;21.50;96.40;;;;;;6101204;22;45309;-66
2023/10/08 15:38:27;;;;;;;8.27;4.00;;;21.50;96.40;;;;;;6058126;22;45131;-66
2023/10/08 15:41:09;;;;;;;7.20;3.60;;;21.50;96.50;;;;;;6066335;22;46147;-66
2023/10/08 15:44:13;;;;;;;8.30;4.10;;;21.50;96.40;;;;;;6072132;22;45229;-66
2023/10/08 15:46:39;;;;;;;8.32;4.57;;;21.50;96.40;;;;;;6039349;22;45164;-66
2023/10/08 15:49:06;;;;;;;7.32;3.88;;;21.50;96.40;;;;;;6106201;22;45164;-66
2023/10/08 15:51:51;;;;;;;5.85;3.53;;;21.50;96.40;;;;;;6079088;22;47212;-66
2023/10/08 15:54:20;;;;;;;7.72;3.92;;;21.50;96.40;;;;;;6060948;22;45279;-67
2023/10/08 15:57:15;;;;;;;8.43;3.72;;;21.50;96.40;;;;;;6060049;22;45418;-66
2023/10/08 15:59:43;;;;;;;7.20;3.95;;;21.50;96.40;;;;;;6064485;22;45117;-66
2023/10/08 16:02:37;;;;;;;9.45;4.05;;;21.50;96.40;;;;;;6081229;22;46324;-66
2023/10/08 16:05:22;;;;;;;7.75;3.97;;;21.50;96.40;;;;;;6078076;22;44830;-66
2023/10/08 16:07:49;;;;;;;8.30;3.65;;;21.50;96.50;;;;;;6089993;22;45566;-66
2023/10/08 16:10:33;;;;;;;7.60;3.40;;;21.50;96.40;;;;;;6095057;22;44807;-66
2023/10/08 16:13:31;;;;;;;9.23;4.00;;;21.50;96.50;;;;;;6057001;22;47425;-66
2023/10/08 16:16:17;;;;;;;7.10;3.53;;;21.50;96.50;;;;;;6074526;22;45172;-66
2023/10/08 16:18:44;;;;;;;9.52;3.58;;;21.50;96.50;;;;;;6056474;22;45088;-67
2023/10/08 16:21:23;;;;;;;7.13;3.78;;;21.50;96.50;;;;;;6088033;22;45293;-66
2023/10/08 16:24:18;;;;;;;8.43;4.05;;;21.50;96.50;;;;;;6130469;22;46228;-66
2023/10/08 16:27:07;;;;;;;6.97;3.63;;;21.50;96.60;;;;;;6132645;22;45116;-66
2023/10/08 16:33:32;;;;;;;9.32;3.92;;;21.50;96.90;;;;;;6048059;22;45152;-66
2023/10/08 16:36:30;;;;;;;10.02;3.78;;;21.50;96.90;;;;;;6119785;22;47314;-66
2023/10/08 16:39:24;;;;;;;8.00;3.40;;;21.50;96.80;;;;;;6070487;22;45316;-66